sensor_id;sensor_type;location;lat;lon;timestamp;pressure;altitude;pressure_sealevel;temperature;humidity
33075;BME280;19433;51.292;6.868;2022-11-15T00:01:00;99734.16;;;10.06;100.00
33075;BME280;19433;51.292;6.868;2022-11-15T00:03:26;99732.38;;;10.25;100.00
33075;BME280;19433;51.292;6.868;2022-11-15T00:05:53;99735.75;;;10.27;100.00
33075;BME280;19433;51.292;6.868;2022-11-15T00:08:18;99728.53;;;10.32;100.00
33075;BME280;19433;51.292;6.868;2022-11-15T00:10:54;99724.91;;;10.38;100.00
33075;BME280;19433;51.292;6.868;2022-11-15T00:13:19;99710.06;;;10.26;100.00
33075;BME280;19433;51.292;6.868;2022-11-15T00:15:45;99717.06;;;10.29;100.00
33075;BME280;19433;51.292;6.868;2022-11-15T00:18:14;99724.66;;;10.40;100.00
33075;BME280;19433;51.292;6.868;2022-11-15T00:20:40;99729.31;;;10.39;100.00
33075;BME280;19433;51.292;6.868;2022-11-15T00:23:05;99723.00;;;10.32;100.00
33075;BME280;19433;51.292;6.868;2022-11-15T00:25:31;99709.19;;;10.39;100.00
33075;BME280;19433;51.292;6.868;2022-11-15T00:27:57;99719.97;;;10.40;100.00
33075;BME280;19433;51.292;6.868;2022-11-15T00:30:22;99729.72;;;10.43;100.00
33075;BME280;19433;51.292;6.868;2022-11-15T00:32:48;99716.97;;;10.48;100.00
33075;BME280;19433;51.292;6.868;2022-11-15T00:35:13;99722.56;;;10.35;100.00
33075;BME280;19433;51.292;6.868;2022-11-15T00:37:39;99707.19;;;10.46;100.00
33075;BME280;19433;51.292;6.868;2022-11-15T00:40:04;99723.88;;;10.64;100.00
33075;BME280;19433;51.292;6.868;2022-11-15T00:42:30;99727.59;;;10.76;100.00
33075;BME280;19433;51.292;6.868;2022-11-15T00:44:55;99730.34;;;10.76;100.00
33075;BME280;19433;51.292;6.868;2022-11-15T00:47:20;99729.91;;;10.79;100.00
33075;BME280;19433;51.292;6.868;2022-11-15T00:49:45;99723.13;;;10.75;100.00
33075;BME280;19433;51.292;6.868;2022-11-15T00:52:11;99719.72;;;10.80;100.00
33075;BME280;19433;51.292;6.868;2022-11-15T00:54:36;99719.81;;;10.91;100.00
33075;BME280;19433;51.292;6.868;2022-11-15T00:57:01;99722.88;;;10.83;100.00
33075;BME280;19433;51.292;6.868;2022-11-15T00:59:26;99720.97;;;10.84;100.00
33075;BME280;19433;51.292;6.868;2022-11-15T01:01:52;99723.53;;;10.79;100.00
33075;BME280;19433;51.292;6.868;2022-11-15T01:04:17;99711.75;;;10.90;100.00
33075;BME280;19433;51.292;6.868;2022-11-15T01:06:42;99708.72;;;10.98;100.00
33075;BME280;19433;51.292;6.868;2022-11-15T01:09:08;99713.97;;;11.06;100.00
33075;BME280;19433;51.292;6.868;2022-11-15T01:11:33;99709.28;;;11.07;100.00
33075;BME280;19433;51.292;6.868;2022-11-15T01:13:58;99717.03;;;10.98;100.00
33075;BME280;19433;51.292;6.868;2022-11-15T01:16:24;99714.34;;;11.10;100.00
33075;BME280;19433;51.292;6.868;2022-11-15T01:18:50;99709.09;;;11.02;100.00
33075;BME280;19433;51.292;6.868;2022-11-15T01:21:18;99702.50;;;11.03;100.00
33075;BME280;19433;51.292;6.868;2022-11-15T01:23:44;99708.56;;;10.93;100.00
33075;BME280;19433;51.292;6.868;2022-11-15T01:26:12;99706.34;;;11.02;100.00
33075;BME280;19433;51.292;6.868;2022-11-15T01:28:39;99689.75;;;11.02;100.00
33075;BME280;19433;51.292;6.868;2022-11-15T01:31:09;99700.97;;;11.07;100.00
33075;BME280;19433;51.292;6.868;2022-11-15T01:33:36;99695.00;;;11.10;100.00
33075;BME280;19433;51.292;6.868;2022-11-15T01:36:06;99696.31;;;11.07;100.00
33075;BME280;19433;51.292;6.868;2022-11-15T01:38:32;99692.63;;;11.13;100.00
33075;BME280;19433;51.292;6.868;2022-11-15T01:40:57;99694.38;;;11.08;100.00
33075;BME280;19433;51.292;6.868;2022-11-15T01:43:26;99688.69;;;11.03;100.00
33075;BME280;19433;51.292;6.868;2022-11-15T01:45:56;99686.47;;;10.86;100.00
33075;BME280;19433;51.292;6.868;2022-11-15T01:48:29;99698.00;;;11.08;100.00
33075;BME280;19433;51.292;6.868;2022-11-15T01:50:57;99686.28;;;11.31;100.00
33075;BME280;19433;51.292;6.868;2022-11-15T01:53:24;99690.63;;;11.20;100.00
33075;BME280;19433;51.292;6.868;2022-11-15T01:55:50;99688.28;;;11.24;100.00
33075;BME280;19433;51.292;6.868;2022-11-15T01:58:16;99684.97;;;11.34;100.00
33075;BME280;19433;51.292;6.868;2022-11-15T02:00:41;99684.28;;;11.38;100.00
33075;BME280;19433;51.292;6.868;2022-11-15T02:03:07;99685.19;;;11.32;100.00
33075;BME280;19433;51.292;6.868;2022-11-15T02:05:32;99679.06;;;11.30;100.00
33075;BME280;19433;51.292;6.868;2022-11-15T02:08:00;99684.00;;;11.28;100.00
33075;BME280;19433;51.292;6.868;2022-11-15T02:10:27;99676.31;;;11.30;100.00
33075;BME280;19433;51.292;6.868;2022-11-15T02:12:53;99677.25;;;11.42;100.00
33075;BME280;19433;51.292;6.868;2022-11-15T02:15:19;99669.94;;;11.30;100.00
33075;BME280;19433;51.292;6.868;2022-11-15T02:20:42;99659.56;;;11.43;100.00
33075;BME280;19433;51.292;6.868;2022-11-15T02:23:41;99656.03;;;11.36;100.00
33075;BME280;19433;51.292;6.868;2022-11-15T02:29:10;99655.41;;;11.34;100.00
33075;BME280;19433;51.292;6.868;2022-11-15T02:33:18;99654.66;;;11.45;100.00
33075;BME280;19433;51.292;6.868;2022-11-15T02:35:29;99655.56;;;11.39;100.00
33075;BME280;19433;51.292;6.868;2022-11-15T02:38:08;99656.59;;;11.45;100.00
33075;BME280;19433;51.292;6.868;2022-11-15T02:40:47;99667.31;;;11.35;100.00
33075;BME280;19433;51.292;6.868;2022-11-15T02:43:20;99654.28;;;11.42;100.00
33075;BME280;19433;51.292;6.868;2022-11-15T02:46:24;99643.50;;;11.52;100.00
33075;BME280;19433;51.292;6.868;2022-11-15T02:49:12;99637.34;;;11.50;100.00
33075;BME280;19433;51.292;6.868;2022-11-15T02:51:39;99643.88;;;11.55;100.00
33075;BME280;19433;51.292;6.868;2022-11-15T02:54:05;99654.72;;;11.57;100.00
33075;BME280;19433;51.292;6.868;2022-11-15T02:56:31;99652.25;;;11.49;100.00
33075;BME280;19433;51.292;6.868;2022-11-15T02:59:07;99658.56;;;11.56;100.00
33075;BME280;19433;51.292;6.868;2022-11-15T03:04:51;99650.50;;;11.54;100.00
33075;BME280;19433;51.292;6.868;2022-11-15T03:07:38;99650.09;;;11.69;100.00
33075;BME280;19433;51.292;6.868;2022-11-15T03:11:07;99645.97;;;11.60;100.00
33075;BME280;19433;51.292;6.868;2022-11-15T03:13:56;99647.19;;;11.64;100.00
33075;BME280;19433;51.292;6.868;2022-11-15T03:16:28;99657.03;;;11.60;100.00
33075;BME280;19433;51.292;6.868;2022-11-15T03:21:30;99656.72;;;11.68;100.00
33075;BME280;19433;51.292;6.868;2022-11-15T03:23:58;99652.72;;;11.64;100.00
33075;BME280;19433;51.292;6.868;2022-11-15T03:26:28;99649.72;;;11.66;100.00
33075;BME280;19433;51.292;6.868;2022-11-15T03:29:02;99647.34;;;11.69;100.00
33075;BME280;19433;51.292;6.868;2022-11-15T03:31:33;99648.81;;;11.72;100.00
33075;BME280;19433;51.292;6.868;2022-11-15T03:34:26;99644.72;;;11.74;100.00
33075;BME280;19433;51.292;6.868;2022-11-15T03:36:52;99640.72;;;11.70;100.00
33075;BME280;19433;51.292;6.868;2022-11-15T03:39:19;99644.88;;;11.61;100.00
33075;BME280;19433;51.292;6.868;2022-11-15T03:42:10;99637.41;;;11.61;100.00
33075;BME280;19433;51.292;6.868;2022-11-15T03:44:50;99625.88;;;11.64;100.00
33075;BME280;19433;51.292;6.868;2022-11-15T03:47:21;99630.34;;;11.66;100.00
33075;BME280;19433;51.292;6.868;2022-11-15T03:49:57;99623.28;;;11.70;100.00
33075;BME280;19433;51.292;6.868;2022-11-15T03:52:24;99631.44;;;11.64;100.00
33075;BME280;19433;51.292;6.868;2022-11-15T03:54:55;99610.59;;;11.62;100.00
33075;BME280;19433;51.292;6.868;2022-11-15T03:57:21;99613.06;;;11.70;100.00
33075;BME280;19433;51.292;6.868;2022-11-15T03:59:46;99615.59;;;11.72;100.00
33075;BME280;19433;51.292;6.868;2022-11-15T04:02:12;99616.69;;;11.71;100.00
33075;BME280;19433;51.292;6.868;2022-11-15T04:04:37;99612.22;;;11.70;100.00
33075;BME280;19433;51.292;6.868;2022-11-15T04:07:03;99624.34;;;11.69;100.00
33075;BME280;19433;51.292;6.868;2022-11-15T04:09:28;99618.13;;;11.73;100.00
33075;BME280;19433;51.292;6.868;2022-11-15T04:11:53;99619.63;;;11.76;100.00
33075;BME280;19433;51.292;6.868;2022-11-15T04:14:19;99612.69;;;11.67;100.00
33075;BME280;19433;51.292;6.868;2022-11-15T04:16:44;99614.53;;;11.73;100.00
33075;BME280;19433;51.292;6.868;2022-11-15T04:19:09;99615.06;;;11.63;100.00
33075;BME280;19433;51.292;6.868;2022-11-15T04:21:53;99608.44;;;11.82;100.00
33075;BME280;19433;51.292;6.868;2022-11-15T04:24:37;99610.75;;;11.67;100.00
33075;BME280;19433;51.292;6.868;2022-11-15T04:27:02;99614.13;;;11.69;100.00
33075;BME280;19433;51.292;6.868;2022-11-15T04:29:28;99606.31;;;11.48;100.00
33075;BME280;19433;51.292;6.868;2022-11-15T04:31:59;99611.38;;;11.33;100.00
33075;BME280;19433;51.292;6.868;2022-11-15T04:34:24;99606.41;;;11.41;100.00
33075;BME280;19433;51.292;6.868;2022-11-15T04:36:50;99591.78;;;11.34;100.00
33075;BME280;19433;51.292;6.868;2022-11-15T04:39:33;99606.00;;;11.38;100.00
33075;BME280;19433;51.292;6.868;2022-11-15T04:41:59;99603.53;;;11.48;100.00
33075;BME280;19433;51.292;6.868;2022-11-15T04:44:24;99607.94;;;11.55;100.00
33075;BME280;19433;51.292;6.868;2022-11-15T04:46:49;99614.09;;;11.57;100.00
33075;BME280;19433;51.292;6.868;2022-11-15T04:49:14;99610.06;;;11.53;100.00
33075;BME280;19433;51.292;6.868;2022-11-15T04:51:40;99612.22;;;11.51;100.00
33075;BME280;19433;51.292;6.868;2022-11-15T04:54:05;99613.84;;;11.41;100.00
33075;BME280;19433;51.292;6.868;2022-11-15T04:56:30;99598.88;;;11.30;100.00
33075;BME280;19433;51.292;6.868;2022-11-15T04:58:56;99607.03;;;11.25;100.00
33075;BME280;19433;51.292;6.868;2022-11-15T05:01:21;99596.34;;;11.10;100.00
33075;BME280;19433;51.292;6.868;2022-11-15T05:03:46;99608.00;;;11.12;100.00
33075;BME280;19433;51.292;6.868;2022-11-15T05:06:30;99607.00;;;11.07;100.00
33075;BME280;19433;51.292;6.868;2022-11-15T05:08:56;99601.53;;;11.00;100.00
33075;BME280;19433;51.292;6.868;2022-11-15T05:11:22;99611.28;;;11.03;100.00
33075;BME280;19433;51.292;6.868;2022-11-15T05:13:48;99614.06;;;11.03;100.00
33075;BME280;19433;51.292;6.868;2022-11-15T05:16:13;99606.91;;;10.95;100.00
33075;BME280;19433;51.292;6.868;2022-11-15T05:18:39;99609.38;;;11.03;100.00
33075;BME280;19433;51.292;6.868;2022-11-15T05:21:11;99612.97;;;11.04;100.00
33075;BME280;19433;51.292;6.868;2022-11-15T05:23:36;99617.31;;;11.00;100.00
33075;BME280;19433;51.292;6.868;2022-11-15T05:26:03;99587.47;;;11.02;100.00
33075;BME280;19433;51.292;6.868;2022-11-15T05:28:30;99601.69;;;11.05;100.00
33075;BME280;19433;51.292;6.868;2022-11-15T05:31:13;99597.63;;;11.08;100.00
33075;BME280;19433;51.292;6.868;2022-11-15T05:33:39;99591.50;;;11.06;100.00
33075;BME280;19433;51.292;6.868;2022-11-15T05:38:47;99590.59;;;11.12;100.00
33075;BME280;19433;51.292;6.868;2022-11-15T05:41:15;99594.41;;;11.11;100.00
33075;BME280;19433;51.292;6.868;2022-11-15T05:43:42;99589.13;;;11.09;100.00
33075;BME280;19433;51.292;6.868;2022-11-15T05:46:08;99587.56;;;10.95;100.00
33075;BME280;19433;51.292;6.868;2022-11-15T05:48:34;99585.03;;;10.93;100.00
33075;BME280;19433;51.292;6.868;2022-11-15T05:51:02;99593.50;;;10.74;100.00
33075;BME280;19433;51.292;6.868;2022-11-15T05:53:29;99594.09;;;10.82;100.00
33075;BME280;19433;51.292;6.868;2022-11-15T05:55:55;99592.47;;;10.93;100.00
33075;BME280;19433;51.292;6.868;2022-11-15T05:58:20;99597.56;;;10.96;100.00
33075;BME280;19433;51.292;6.868;2022-11-15T06:00:46;99589.66;;;11.00;100.00
33075;BME280;19433;51.292;6.868;2022-11-15T06:03:11;99594.94;;;11.01;100.00
33075;BME280;19433;51.292;6.868;2022-11-15T06:05:39;99593.09;;;10.95;100.00
33075;BME280;19433;51.292;6.868;2022-11-15T06:08:04;99600.72;;;11.00;100.00
33075;BME280;19433;51.292;6.868;2022-11-15T06:10:29;99602.09;;;11.09;100.00
33075;BME280;19433;51.292;6.868;2022-11-15T06:13:03;99608.25;;;11.11;100.00
33075;BME280;19433;51.292;6.868;2022-11-15T06:15:29;99606.22;;;11.18;100.00
33075;BME280;19433;51.292;6.868;2022-11-15T06:17:58;99625.72;;;11.05;100.00
33075;BME280;19433;51.292;6.868;2022-11-15T06:20:25;99615.25;;;10.88;100.00
33075;BME280;19433;51.292;6.868;2022-11-15T06:22:50;99621.84;;;10.87;100.00
33075;BME280;19433;51.292;6.868;2022-11-15T06:25:16;99615.25;;;10.88;100.00
33075;BME280;19433;51.292;6.868;2022-11-15T06:27:41;99610.66;;;11.01;100.00
33075;BME280;19433;51.292;6.868;2022-11-15T06:30:07;99620.59;;;11.08;100.00
33075;BME280;19433;51.292;6.868;2022-11-15T09:34:41;99670.91;;;15.37;71.39
33075;BME280;19433;51.292;6.868;2022-11-15T09:37:07;99681.22;;;15.97;68.57
33075;BME280;19433;51.292;6.868;2022-11-15T09:39:32;99671.31;;;15.84;68.82
33075;BME280;19433;51.292;6.868;2022-11-15T09:42:18;99669.06;;;15.81;68.55
33075;BME280;19433;51.292;6.868;2022-11-15T09:50:44;99661.09;;;16.38;65.84
33075;BME280;19433;51.292;6.868;2022-11-15T09:53:21;99650.94;;;16.27;65.56
33075;BME280;19433;51.292;6.868;2022-11-15T09:55:56;99641.38;;;15.74;66.66
33075;BME280;19433;51.292;6.868;2022-11-15T09:58:54;99637.75;;;15.35;68.05
33075;BME280;19433;51.292;6.868;2022-11-15T10:01:43;99635.59;;;15.04;69.08
33075;BME280;19433;51.292;6.868;2022-11-15T10:04:10;99626.50;;;14.75;67.58
33075;BME280;19433;51.292;6.868;2022-11-15T10:06:40;99621.19;;;14.90;67.45
33075;BME280;19433;51.292;6.868;2022-11-15T10:09:14;99618.50;;;14.95;67.87
33075;BME280;19433;51.292;6.868;2022-11-15T10:11:40;99619.16;;;14.69;68.69
33075;BME280;19433;51.292;6.868;2022-11-15T10:14:15;99601.38;;;14.87;68.14
33075;BME280;19433;51.292;6.868;2022-11-15T10:17:19;99602.22;;;15.04;67.80
33075;BME280;19433;51.292;6.868;2022-11-15T10:19:56;99613.38;;;15.42;66.58
33075;BME280;19433;51.292;6.868;2022-11-15T10:27:39;99604.66;;;15.00;65.92
33075;BME280;19433;51.292;6.868;2022-11-15T10:30:17;99589.50;;;14.41;66.33
33075;BME280;19433;51.292;6.868;2022-11-15T10:32:44;99595.25;;;14.23;65.79
33075;BME280;19433;51.292;6.868;2022-11-15T10:35:48;99598.22;;;13.88;67.16
33075;BME280;19433;51.292;6.868;2022-11-15T10:38:13;99575.16;;;13.87;66.93
33075;BME280;19433;51.292;6.868;2022-11-15T10:40:40;99587.41;;;13.75;67.63
33075;BME280;19433;51.292;6.868;2022-11-15T10:43:14;99572.88;;;13.84;67.28
33075;BME280;19433;51.292;6.868;2022-11-15T10:46:18;99571.00;;;13.61;65.60
33075;BME280;19433;51.292;6.868;2022-11-15T10:48:44;99579.53;;;13.43;67.56
33075;BME280;19433;51.292;6.868;2022-11-15T10:51:20;99580.38;;;13.32;66.89
33075;BME280;19433;51.292;6.868;2022-11-15T10:53:47;99555.31;;;13.27;68.78
33075;BME280;19433;51.292;6.868;2022-11-15T10:56:33;99547.31;;;13.42;68.53
33075;BME280;19433;51.292;6.868;2022-11-15T10:58:59;99568.75;;;13.58;66.68
33075;BME280;19433;51.292;6.868;2022-11-15T11:01:26;99549.94;;;13.49;65.55
33075;BME280;19433;51.292;6.868;2022-11-15T11:14:42;99545.59;;;13.53;67.44
33075;BME280;19433;51.292;6.868;2022-11-15T11:21:16;99512.47;;;13.34;64.46
33075;BME280;19433;51.292;6.868;2022-11-15T11:23:52;99514.19;;;13.24;63.27
33075;BME280;19433;51.292;6.868;2022-11-15T11:49:20;99522.34;;;13.70;60.19
33075;BME280;19433;51.292;6.868;2022-11-15T11:52:08;99510.91;;;13.67;60.33
33075;BME280;19433;51.292;6.868;2022-11-15T11:57:28;99509.19;;;13.94;59.19
33075;BME280;19433;51.292;6.868;2022-11-15T12:00:02;99487.75;;;13.90;57.77
33075;BME280;19433;51.292;6.868;2022-11-15T12:02:38;99506.75;;;13.98;57.83
33075;BME280;19433;51.292;6.868;2022-11-15T12:05:32;99515.09;;;13.98;57.69
33075;BME280;19433;51.292;6.868;2022-11-15T12:08:31;99516.19;;;13.97;56.44
33075;BME280;19433;51.292;6.868;2022-11-15T12:11:12;99503.00;;;14.04;56.69
33075;BME280;19433;51.292;6.868;2022-11-15T12:13:40;99498.69;;;14.13;58.11
33075;BME280;19433;51.292;6.868;2022-11-15T12:16:14;99485.56;;;14.25;56.74
33075;BME280;19433;51.292;6.868;2022-11-15T12:18:47;99482.53;;;14.27;57.13
33075;BME280;19433;51.292;6.868;2022-11-15T12:21:19;99478.69;;;14.45;56.28
33075;BME280;19433;51.292;6.868;2022-11-15T12:23:53;99474.94;;;14.39;56.38
33075;BME280;19433;51.292;6.868;2022-11-15T12:26:26;99477.97;;;14.37;55.75
33075;BME280;19433;51.292;6.868;2022-11-15T12:28:57;99458.84;;;13.91;57.56
33075;BME280;19433;51.292;6.868;2022-11-15T12:33:56;99456.34;;;13.72;58.31
33075;BME280;19433;51.292;6.868;2022-11-15T12:38:54;99462.06;;;13.83;58.63
33075;BME280;19433;51.292;6.868;2022-11-15T12:41:24;99431.66;;;13.59;59.19
33075;BME280;19433;51.292;6.868;2022-11-15T12:43:50;99437.56;;;13.80;58.96
33075;BME280;19433;51.292;6.868;2022-11-15T12:52:05;99420.56;;;13.93;59.18
33075;BME280;19433;51.292;6.868;2022-11-15T12:57:33;99397.53;;;13.92;59.27
33075;BME280;19433;51.292;6.868;2022-11-15T13:00:04;99405.25;;;14.07;59.46
33075;BME280;19433;51.292;6.868;2022-11-15T13:03:17;99384.81;;;14.13;59.56
33075;BME280;19433;51.292;6.868;2022-11-15T13:08:08;99388.31;;;14.25;59.71
33075;BME280;19433;51.292;6.868;2022-11-15T13:10:34;99379.03;;;14.36;60.47
33075;BME280;19433;51.292;6.868;2022-11-15T13:13:09;99374.91;;;14.39;59.63
33075;BME280;19433;51.292;6.868;2022-11-15T13:15:45;99373.03;;;14.61;59.21
33075;BME280;19433;51.292;6.868;2022-11-15T13:18:33;99366.50;;;14.51;58.52
33075;BME280;19433;51.292;6.868;2022-11-15T13:20:59;99369.13;;;14.40;59.45
33075;BME280;19433;51.292;6.868;2022-11-15T13:23:25;99371.22;;;14.33;59.95
33075;BME280;19433;51.292;6.868;2022-11-15T13:26:11;99366.34;;;14.40;59.80
33075;BME280;19433;51.292;6.868;2022-11-15T13:33:57;99353.38;;;14.29;60.85
33075;BME280;19433;51.292;6.868;2022-11-15T13:36:29;99360.63;;;14.30;61.01
33075;BME280;19433;51.292;6.868;2022-11-15T13:39:12;99345.41;;;14.16;61.79
33075;BME280;19433;51.292;6.868;2022-11-15T13:42:15;99332.78;;;14.08;62.76
33075;BME280;19433;51.292;6.868;2022-11-15T13:44:55;99333.09;;;14.29;61.57
33075;BME280;19433;51.292;6.868;2022-11-15T13:47:20;99341.75;;;14.32;61.65
33075;BME280;19433;51.292;6.868;2022-11-15T13:49:46;99338.16;;;14.32;61.90
33075;BME280;19433;51.292;6.868;2022-11-15T13:52:13;99329.16;;;14.08;62.40
33075;BME280;19433;51.292;6.868;2022-11-15T13:54:58;99320.47;;;14.21;62.20
33075;BME280;19433;51.292;6.868;2022-11-15T13:57:28;99321.41;;;14.27;62.43
33075;BME280;19433;51.292;6.868;2022-11-15T13:59:57;99316.59;;;13.84;63.65
33075;BME280;19433;51.292;6.868;2022-11-15T14:11:37;99290.19;;;13.81;66.40
33075;BME280;19433;51.292;6.868;2022-11-15T14:14:14;99280.53;;;13.67;67.27
33075;BME280;19433;51.292;6.868;2022-11-15T14:36:43;99241.78;;;13.22;71.70
33075;BME280;19433;51.292;6.868;2022-11-15T14:39:09;99246.84;;;13.25;71.88
33075;BME280;19433;51.292;6.868;2022-11-15T14:41:36;99234.81;;;13.19;72.37
33075;BME280;19433;51.292;6.868;2022-11-15T14:44:25;99236.63;;;13.14;72.83
33075;BME280;19433;51.292;6.868;2022-11-15T14:47:16;99231.09;;;13.14;72.78
33075;BME280;19433;51.292;6.868;2022-11-15T15:04:18;99212.81;;;13.01;74.50
33075;BME280;19433;51.292;6.868;2022-11-15T15:10:52;99195.00;;;12.80;75.42
33075;BME280;19433;51.292;6.868;2022-11-15T15:20:26;99177.38;;;12.86;76.05
33075;BME280;19433;51.292;6.868;2022-11-15T15:55:39;99128.97;;;12.44;78.86
33075;BME280;19433;51.292;6.868;2022-11-15T15:58:05;99138.47;;;12.48;78.61
33075;BME280;19433;51.292;6.868;2022-11-15T16:00:31;99127.13;;;12.49;78.83
33075;BME280;19433;51.292;6.868;2022-11-15T16:02:58;99128.56;;;12.52;78.59
33075;BME280;19433;51.292;6.868;2022-11-15T16:05:24;99117.03;;;12.43;79.23
33075;BME280;19433;51.292;6.868;2022-11-15T16:07:49;99124.59;;;12.48;78.96
33075;BME280;19433;51.292;6.868;2022-11-15T16:10:26;99125.09;;;12.45;79.05
33075;BME280;19433;51.292;6.868;2022-11-15T16:12:52;99111.84;;;12.47;79.31
33075;BME280;19433;51.292;6.868;2022-11-15T16:15:18;99117.38;;;12.47;79.13
33075;BME280;19433;51.292;6.868;2022-11-15T16:17:51;99115.94;;;12.44;79.33
33075;BME280;19433;51.292;6.868;2022-11-15T16:20:38;99111.41;;;12.38;79.79
33075;BME280;19433;51.292;6.868;2022-11-15T16:23:10;99117.88;;;12.44;79.86
33075;BME280;19433;51.292;6.868;2022-11-15T16:28:17;99098.97;;;12.41;79.77
33075;BME280;19433;51.292;6.868;2022-11-15T16:30:43;99091.16;;;12.38;79.74
33075;BME280;19433;51.292;6.868;2022-11-15T16:33:08;99095.97;;;12.42;80.13
33075;BME280;19433;51.292;6.868;2022-11-15T16:35:33;99103.19;;;12.43;80.32
33075;BME280;19433;51.292;6.868;2022-11-15T16:37:59;99101.84;;;12.46;80.37
33075;BME280;19433;51.292;6.868;2022-11-15T16:40:33;99102.94;;;12.45;80.02
33075;BME280;19433;51.292;6.868;2022-11-15T16:43:00;99098.59;;;12.49;80.42
33075;BME280;19433;51.292;6.868;2022-11-15T16:45:27;99105.28;;;12.53;80.11
33075;BME280;19433;51.292;6.868;2022-11-15T16:47:54;99095.81;;;12.49;80.30
33075;BME280;19433;51.292;6.868;2022-11-15T16:50:22;99106.41;;;12.52;80.42
33075;BME280;19433;51.292;6.868;2022-11-15T16:52:54;99098.09;;;12.52;80.44
33075;BME280;19433;51.292;6.868;2022-11-15T16:55:22;99098.41;;;12.55;80.64
33075;BME280;19433;51.292;6.868;2022-11-15T16:57:48;99093.06;;;12.49;80.56
33075;BME280;19433;51.292;6.868;2022-11-15T17:00:14;99094.56;;;12.56;80.52
33075;BME280;19433;51.292;6.868;2022-11-15T17:02:43;99087.31;;;12.55;80.82
33075;BME280;19433;51.292;6.868;2022-11-15T17:05:10;99098.16;;;12.57;80.58
33075;BME280;19433;51.292;6.868;2022-11-15T17:07:35;99076.00;;;12.57;80.23
33075;BME280;19433;51.292;6.868;2022-11-15T17:10:00;99081.78;;;12.55;80.60
33075;BME280;19433;51.292;6.868;2022-11-15T17:12:27;99079.53;;;12.52;80.86
33075;BME280;19433;51.292;6.868;2022-11-15T17:14:52;99081.28;;;12.58;80.84
33075;BME280;19433;51.292;6.868;2022-11-15T17:17:18;99091.28;;;12.59;80.77
33075;BME280;19433;51.292;6.868;2022-11-15T17:19:43;99073.47;;;12.55;80.89
33075;BME280;19433;51.292;6.868;2022-11-15T17:22:08;99087.28;;;12.67;80.44
33075;BME280;19433;51.292;6.868;2022-11-15T17:24:33;99083.06;;;12.64;80.43
33075;BME280;19433;51.292;6.868;2022-11-15T17:26:59;99082.81;;;12.66;80.39
33075;BME280;19433;51.292;6.868;2022-11-15T17:29:24;99085.50;;;12.61;80.36
33075;BME280;19433;51.292;6.868;2022-11-15T17:31:49;99088.59;;;12.64;80.41
33075;BME280;19433;51.292;6.868;2022-11-15T17:34:14;99099.50;;;12.71;80.13
33075;BME280;19433;51.292;6.868;2022-11-15T17:36:40;99090.03;;;12.67;80.17
33075;BME280;19433;51.292;6.868;2022-11-15T17:39:05;99085.66;;;12.71;80.10
33075;BME280;19433;51.292;6.868;2022-11-15T17:41:30;99094.22;;;12.69;80.35
33075;BME280;19433;51.292;6.868;2022-11-15T17:43:57;99094.56;;;12.73;79.98
33075;BME280;19433;51.292;6.868;2022-11-15T17:46:24;99087.91;;;12.74;80.03
33075;BME280;19433;51.292;6.868;2022-11-15T17:48:49;99092.13;;;12.60;80.93
33075;BME280;19433;51.292;6.868;2022-11-15T17:51:16;99086.50;;;12.72;80.18
33075;BME280;19433;51.292;6.868;2022-11-15T17:53:44;99089.75;;;12.68;80.48
33075;BME280;19433;51.292;6.868;2022-11-15T17:56:11;99083.56;;;12.61;80.88
33075;BME280;19433;51.292;6.868;2022-11-15T17:58:37;99091.44;;;12.69;80.69
33075;BME280;19433;51.292;6.868;2022-11-15T18:01:15;99081.03;;;12.60;81.61
33075;BME280;19433;51.292;6.868;2022-11-15T18:03:41;99081.38;;;12.63;80.82
33075;BME280;19433;51.292;6.868;2022-11-15T18:06:08;99074.16;;;12.62;82.07
33075;BME280;19433;51.292;6.868;2022-11-15T18:08:38;99075.06;;;12.35;84.25
33075;BME280;19433;51.292;6.868;2022-11-15T18:11:06;99065.78;;;12.12;85.98
33075;BME280;19433;51.292;6.868;2022-11-15T18:13:33;99061.94;;;12.13;85.72
33075;BME280;19433;51.292;6.868;2022-11-15T18:15:59;99073.84;;;12.14;86.22
33075;BME280;19433;51.292;6.868;2022-11-15T18:18:29;99053.47;;;12.03;86.81
33075;BME280;19433;51.292;6.868;2022-11-15T18:20:59;99058.22;;;12.08;87.10
33075;BME280;19433;51.292;6.868;2022-11-15T18:23:24;99060.25;;;12.12;87.28
33075;BME280;19433;51.292;6.868;2022-11-15T18:25:50;99046.00;;;12.04;88.27
33075;BME280;19433;51.292;6.868;2022-11-15T18:28:15;99042.78;;;11.95;89.24
33075;BME280;19433;51.292;6.868;2022-11-15T18:30:41;99042.59;;;11.85;89.68
33075;BME280;19433;51.292;6.868;2022-11-15T18:33:06;99033.34;;;11.79;90.87
33075;BME280;19433;51.292;6.868;2022-11-15T18:35:31;99042.50;;;11.68;92.41
33075;BME280;19433;51.292;6.868;2022-11-15T18:37:56;99041.66;;;11.68;93.19
33075;BME280;19433;51.292;6.868;2022-11-15T18:40:22;99043.47;;;11.62;94.04
33075;BME280;19433;51.292;6.868;2022-11-15T18:42:47;99036.91;;;11.51;95.37
33075;BME280;19433;51.292;6.868;2022-11-15T18:45:12;99025.00;;;11.51;96.12
33075;BME280;19433;51.292;6.868;2022-11-15T18:47:38;99018.81;;;11.32;98.67
33075;BME280;19433;51.292;6.868;2022-11-15T18:50:04;99016.44;;;11.24;100.00
33075;BME280;19433;51.292;6.868;2022-11-15T18:52:31;99020.41;;;11.28;100.00
33075;BME280;19433;51.292;6.868;2022-11-15T18:54:56;99010.00;;;11.07;100.00
33075;BME280;19433;51.292;6.868;2022-11-15T18:57:21;99003.25;;;11.03;100.00
33075;BME280;19433;51.292;6.868;2022-11-15T18:59:47;99017.59;;;11.00;100.00
33075;BME280;19433;51.292;6.868;2022-11-15T19:02:12;99010.50;;;10.92;100.00
33075;BME280;19433;51.292;6.868;2022-11-15T19:04:37;99006.06;;;10.91;100.00
33075;BME280;19433;51.292;6.868;2022-11-15T19:07:02;98999.00;;;10.83;100.00
33075;BME280;19433;51.292;6.868;2022-11-15T19:09:28;98997.44;;;10.76;100.00
33075;BME280;19433;51.292;6.868;2022-11-15T19:11:56;99001.03;;;10.76;100.00